sensor_id;sensor_type;location;lat;lon;timestamp;temperature;humidity
18450;DHT22;9354;50.194;7.690;2023-07-20T00:00:18;17.80;99.50
18450;DHT22;9354;50.194;7.690;2023-07-20T00:02:49;17.80;99.60
18450;DHT22;9354;50.194;7.690;2023-07-20T00:05:18;17.80;99.70
18450;DHT22;9354;50.194;7.690;2023-07-20T00:07:47;17.70;99.80
18450;DHT22;9354;50.194;7.690;2023-07-20T00:10:18;17.70;99.90
18450;DHT22;9354;50.194;7.690;2023-07-20T00:12:45;17.70;99.90
18450;DHT22;9354;50.194;7.690;2023-07-20T00:15:13;17.60;99.90
18450;DHT22;9354;50.194;7.690;2023-07-20T00:17:41;17.70;99.90
18450;DHT22;9354;50.194;7.690;2023-07-20T00:20:09;17.60;99.90
18450;DHT22;9354;50.194;7.690;2023-07-20T00:22:38;17.60;99.90
18450;DHT22;9354;50.194;7.690;2023-07-20T00:25:06;17.60;99.90
18450;DHT22;9354;50.194;7.690;2023-07-20T00:27:33;17.60;99.90
18450;DHT22;9354;50.194;7.690;2023-07-20T00:30:01;17.60;99.90
18450;DHT22;9354;50.194;7.690;2023-07-20T00:32:28;17.70;99.90
18450;DHT22;9354;50.194;7.690;2023-07-20T00:34:56;17.60;99.90
18450;DHT22;9354;50.194;7.690;2023-07-20T00:37:23;17.60;99.90
18450;DHT22;9354;50.194;7.690;2023-07-20T00:39:53;17.50;99.90
18450;DHT22;9354;50.194;7.690;2023-07-20T00:42:21;17.40;99.90
18450;DHT22;9354;50.194;7.690;2023-07-20T00:44:48;17.30;99.90
18450;DHT22;9354;50.194;7.690;2023-07-20T00:47:15;17.20;99.90
18450;DHT22;9354;50.194;7.690;2023-07-20T00:49:43;17.20;99.90
18450;DHT22;9354;50.194;7.690;2023-07-20T00:52:12;17.10;99.90
18450;DHT22;9354;50.194;7.690;2023-07-20T00:54:41;16.90;99.90
18450;DHT22;9354;50.194;7.690;2023-07-20T00:57:12;16.80;99.90
18450;DHT22;9354;50.194;7.690;2023-07-20T00:59:41;16.80;99.90
18450;DHT22;9354;50.194;7.690;2023-07-20T01:02:08;16.80;99.90
18450;DHT22;9354;50.194;7.690;2023-07-20T01:04:36;16.70;99.90
18450;DHT22;9354;50.194;7.690;2023-07-20T01:07:10;16.70;99.90
18450;DHT22;9354;50.194;7.690;2023-07-20T01:09:43;16.70;99.90
18450;DHT22;9354;50.194;7.690;2023-07-20T01:12:18;16.60;99.90
18450;DHT22;9354;50.194;7.690;2023-07-20T01:14:50;16.60;99.90
18450;DHT22;9354;50.194;7.690;2023-07-20T01:17:18;16.60;99.90
18450;DHT22;9354;50.194;7.690;2023-07-20T01:19:45;16.60;99.90
18450;DHT22;9354;50.194;7.690;2023-07-20T01:22:28;16.50;99.90
18450;DHT22;9354;50.194;7.690;2023-07-20T01:25:16;16.50;99.90
18450;DHT22;9354;50.194;7.690;2023-07-20T01:28:16;16.50;99.90
18450;DHT22;9354;50.194;7.690;2023-07-20T01:30:55;16.50;99.90
18450;DHT22;9354;50.194;7.690;2023-07-20T01:33:25;16.40;99.90
18450;DHT22;9354;50.194;7.690;2023-07-20T01:35:55;16.40;99.90
18450;DHT22;9354;50.194;7.690;2023-07-20T01:38:24;16.40;99.90
18450;DHT22;9354;50.194;7.690;2023-07-20T01:40:52;16.40;99.90
18450;DHT22;9354;50.194;7.690;2023-07-20T01:43:19;16.40;99.90
18450;DHT22;9354;50.194;7.690;2023-07-20T01:45:47;16.40;99.90
18450;DHT22;9354;50.194;7.690;2023-07-20T01:48:14;16.50;99.90
18450;DHT22;9354;50.194;7.690;2023-07-20T01:50:43;16.50;99.90
18450;DHT22;9354;50.194;7.690;2023-07-20T01:53:11;16.40;99.90
18450;DHT22;9354;50.194;7.690;2023-07-20T01:55:38;16.40;99.90
18450;DHT22;9354;50.194;7.690;2023-07-20T01:58:06;16.30;99.90
18450;DHT22;9354;50.194;7.690;2023-07-20T02:00:33;16.20;99.90
18450;DHT22;9354;50.194;7.690;2023-07-20T02:03:01;16.10;99.90
18450;DHT22;9354;50.194;7.690;2023-07-20T02:05:28;16.10;99.90
18450;DHT22;9354;50.194;7.690;2023-07-20T02:07:57;16.10;99.90
18450;DHT22;9354;50.194;7.690;2023-07-20T02:10:24;16.10;99.90
18450;DHT22;9354;50.194;7.690;2023-07-20T02:12:51;16.10;99.90
18450;DHT22;9354;50.194;7.690;2023-07-20T02:15:19;16.20;99.90
18450;DHT22;9354;50.194;7.690;2023-07-20T02:17:47;16.30;99.90
18450;DHT22;9354;50.194;7.690;2023-07-20T02:20:14;16.30;99.90
18450;DHT22;9354;50.194;7.690;2023-07-20T02:22:41;16.40;99.90
18450;DHT22;9354;50.194;7.690;2023-07-20T02:25:10;16.40;99.90
18450;DHT22;9354;50.194;7.690;2023-07-20T02:27:38;16.30;99.90
18450;DHT22;9354;50.194;7.690;2023-07-20T02:30:06;16.30;99.90
18450;DHT22;9354;50.194;7.690;2023-07-20T02:32:36;16.10;99.90
18450;DHT22;9354;50.194;7.690;2023-07-20T02:35:04;16.00;99.90
18450;DHT22;9354;50.194;7.690;2023-07-20T02:37:32;15.90;99.90
18450;DHT22;9354;50.194;7.690;2023-07-20T02:39:59;15.80;99.90
18450;DHT22;9354;50.194;7.690;2023-07-20T02:42:28;15.80;99.90
18450;DHT22;9354;50.194;7.690;2023-07-20T02:44:56;15.80;99.90
18450;DHT22;9354;50.194;7.690;2023-07-20T02:47:23;15.80;99.90
18450;DHT22;9354;50.194;7.690;2023-07-20T02:49:51;15.80;99.90
18450;DHT22;9354;50.194;7.690;2023-07-20T02:52:18;15.90;99.90
18450;DHT22;9354;50.194;7.690;2023-07-20T02:54:46;15.90;99.90
18450;DHT22;9354;50.194;7.690;2023-07-20T02:57:13;15.90;99.90
18450;DHT22;9354;50.194;7.690;2023-07-20T02:59:42;16.00;99.90
18450;DHT22;9354;50.194;7.690;2023-07-20T03:02:09;16.00;99.90
18450;DHT22;9354;50.194;7.690;2023-07-20T03:04:36;16.00;99.90
18450;DHT22;9354;50.194;7.690;2023-07-20T03:07:04;16.00;99.90
18450;DHT22;9354;50.194;7.690;2023-07-20T03:09:33;15.90;99.90
18450;DHT22;9354;50.194;7.690;2023-07-20T03:12:00;15.90;99.90
18450;DHT22;9354;50.194;7.690;2023-07-20T03:14:28;15.80;99.90
18450;DHT22;9354;50.194;7.690;2023-07-20T03:16:57;15.70;99.90
18450;DHT22;9354;50.194;7.690;2023-07-20T03:19:24;15.70;99.90
18450;DHT22;9354;50.194;7.690;2023-07-20T03:21:51;15.60;99.90
18450;DHT22;9354;50.194;7.690;2023-07-20T03:24:19;15.50;99.90
18450;DHT22;9354;50.194;7.690;2023-07-20T03:26:47;15.50;99.90
18450;DHT22;9354;50.194;7.690;2023-07-20T03:29:14;15.40;99.90
18450;DHT22;9354;50.194;7.690;2023-07-20T03:31:42;15.40;99.90
18450;DHT22;9354;50.194;7.690;2023-07-20T03:34:10;15.30;99.90
18450;DHT22;9354;50.194;7.690;2023-07-20T03:36:38;15.20;99.90
18450;DHT22;9354;50.194;7.690;2023-07-20T03:39:05;15.20;99.90
18450;DHT22;9354;50.194;7.690;2023-07-20T03:41:33;15.20;99.90
18450;DHT22;9354;50.194;7.690;2023-07-20T03:44:00;15.10;99.90
18450;DHT22;9354;50.194;7.690;2023-07-20T03:46:28;15.10;99.90
18450;DHT22;9354;50.194;7.690;2023-07-20T03:48:55;15.10;99.90
18450;DHT22;9354;50.194;7.690;2023-07-20T03:51:24;15.10;99.90
18450;DHT22;9354;50.194;7.690;2023-07-20T03:53:51;15.10;99.90
18450;DHT22;9354;50.194;7.690;2023-07-20T03:56:19;15.10;99.90
18450;DHT22;9354;50.194;7.690;2023-07-20T03:58:46;15.20;99.90
18450;DHT22;9354;50.194;7.690;2023-07-20T04:01:13;15.20;99.90
18450;DHT22;9354;50.194;7.690;2023-07-20T04:03:42;15.20;99.90
18450;DHT22;9354;50.194;7.690;2023-07-20T04:06:10;15.20;99.90
18450;DHT22;9354;50.194;7.690;2023-07-20T04:08:39;15.20;99.90
18450;DHT22;9354;50.194;7.690;2023-07-20T04:11:06;15.10;99.90
18450;DHT22;9354;50.194;7.690;2023-07-20T04:13:34;15.20;99.90
18450;DHT22;9354;50.194;7.690;2023-07-20T04:16:01;15.20;99.90
18450;DHT22;9354;50.194;7.690;2023-07-20T04:18:29;15.20;99.90
18450;DHT22;9354;50.194;7.690;2023-07-20T04:20:56;15.20;99.90
18450;DHT22;9354;50.194;7.690;2023-07-20T04:23:23;15.20;99.90
18450;DHT22;9354;50.194;7.690;2023-07-20T04:25:52;15.30;99.90
18450;DHT22;9354;50.194;7.690;2023-07-20T04:28:20;15.30;99.90
18450;DHT22;9354;50.194;7.690;2023-07-20T04:30:49;15.40;99.90
18450;DHT22;9354;50.194;7.690;2023-07-20T04:33:17;15.30;99.90
18450;DHT22;9354;50.194;7.690;2023-07-20T04:35:51;15.40;99.90
18450;DHT22;9354;50.194;7.690;2023-07-20T04:38:19;15.40;99.90
18450;DHT22;9354;50.194;7.690;2023-07-20T04:40:48;15.50;99.90
18450;DHT22;9354;50.194;7.690;2023-07-20T04:43:17;15.60;99.90
18450;DHT22;9354;50.194;7.690;2023-07-20T04:45:45;15.70;99.90
18450;DHT22;9354;50.194;7.690;2023-07-20T04:48:15;15.70;99.90
18450;DHT22;9354;50.194;7.690;2023-07-20T04:50:43;15.80;99.90
18450;DHT22;9354;50.194;7.690;2023-07-20T04:53:11;15.70;99.90
18450;DHT22;9354;50.194;7.690;2023-07-20T04:55:39;15.70;99.90
18450;DHT22;9354;50.194;7.690;2023-07-20T04:58:07;15.60;99.90
18450;DHT22;9354;50.194;7.690;2023-07-20T05:00:38;15.60;99.90
18450;DHT22;9354;50.194;7.690;2023-07-20T05:03:05;15.60;99.90
18450;DHT22;9354;50.194;7.690;2023-07-20T05:05:33;15.70;99.90
18450;DHT22;9354;50.194;7.690;2023-07-20T05:08:00;15.70;99.90
18450;DHT22;9354;50.194;7.690;2023-07-20T05:10:28;15.70;99.90
18450;DHT22;9354;50.194;7.690;2023-07-20T05:12:55;15.80;99.90
18450;DHT22;9354;50.194;7.690;2023-07-20T05:15:22;15.80;99.90
18450;DHT22;9354;50.194;7.690;2023-07-20T05:17:51;15.90;99.90
18450;DHT22;9354;50.194;7.690;2023-07-20T05:20:19;16.00;99.90
18450;DHT22;9354;50.194;7.690;2023-07-20T05:22:47;16.10;99.90
18450;DHT22;9354;50.194;7.690;2023-07-20T05:25:14;16.10;99.90
18450;DHT22;9354;50.194;7.690;2023-07-20T05:27:44;16.20;99.90
18450;DHT22;9354;50.194;7.690;2023-07-20T05:30:12;16.30;99.90
18450;DHT22;9354;50.194;7.690;2023-07-20T05:32:39;16.30;99.90
18450;DHT22;9354;50.194;7.690;2023-07-20T05:35:09;16.40;99.90
18450;DHT22;9354;50.194;7.690;2023-07-20T05:37:37;16.50;99.90
18450;DHT22;9354;50.194;7.690;2023-07-20T05:40:06;16.60;99.90
18450;DHT22;9354;50.194;7.690;2023-07-20T05:42:34;16.60;99.90
18450;DHT22;9354;50.194;7.690;2023-07-20T05:45:01;16.70;99.90
18450;DHT22;9354;50.194;7.690;2023-07-20T05:47:28;16.80;99.90
18450;DHT22;9354;50.194;7.690;2023-07-20T05:49:56;16.80;99.90
18450;DHT22;9354;50.194;7.690;2023-07-20T05:52:25;16.90;99.90
18450;DHT22;9354;50.194;7.690;2023-07-20T05:54:52;17.00;99.90
18450;DHT22;9354;50.194;7.690;2023-07-20T05:57:19;17.10;99.90
18450;DHT22;9354;50.194;7.690;2023-07-20T05:59:47;17.20;99.90
18450;DHT22;9354;50.194;7.690;2023-07-20T06:02:14;17.30;99.90
18450;DHT22;9354;50.194;7.690;2023-07-20T06:04:41;17.30;99.90
18450;DHT22;9354;50.194;7.690;2023-07-20T06:07:09;17.40;99.90
18450;DHT22;9354;50.194;7.690;2023-07-20T06:09:37;17.40;99.90
18450;DHT22;9354;50.194;7.690;2023-07-20T06:12:06;17.50;99.90
18450;DHT22;9354;50.194;7.690;2023-07-20T06:14:34;17.60;99.90
18450;DHT22;9354;50.194;7.690;2023-07-20T06:17:01;17.70;99.90
18450;DHT22;9354;50.194;7.690;2023-07-20T06:19:28;17.80;99.90
18450;DHT22;9354;50.194;7.690;2023-07-20T06:21:56;17.80;99.90
18450;DHT22;9354;50.194;7.690;2023-07-20T06:24:23;17.90;99.90
18450;DHT22;9354;50.194;7.690;2023-07-20T06:26:52;17.90;99.90
18450;DHT22;9354;50.194;7.690;2023-07-20T06:29:19;18.00;99.90
18450;DHT22;9354;50.194;7.690;2023-07-20T06:31:47;17.90;99.90
18450;DHT22;9354;50.194;7.690;2023-07-20T06:34:14;18.00;99.90
18450;DHT22;9354;50.194;7.690;2023-07-20T06:36:41;18.00;99.90
18450;DHT22;9354;50.194;7.690;2023-07-20T06:39:09;18.10;99.90
18450;DHT22;9354;50.194;7.690;2023-07-20T06:41:36;18.20;99.90
18450;DHT22;9354;50.194;7.690;2023-07-20T06:44:05;18.30;99.90
18450;DHT22;9354;50.194;7.690;2023-07-20T06:46:34;18.30;99.90
18450;DHT22;9354;50.194;7.690;2023-07-20T06:49:01;18.30;99.90
18450;DHT22;9354;50.194;7.690;2023-07-20T06:51:28;18.30;99.90
18450;DHT22;9354;50.194;7.690;2023-07-20T06:53:56;18.30;99.90
18450;DHT22;9354;50.194;7.690;2023-07-20T06:56:23;18.20;99.90
18450;DHT22;9354;50.194;7.690;2023-07-20T06:58:50;18.20;99.90
18450;DHT22;9354;50.194;7.690;2023-07-20T07:01:19;18.20;99.90
18450;DHT22;9354;50.194;7.690;2023-07-20T07:03:47;18.20;99.90
18450;DHT22;9354;50.194;7.690;2023-07-20T07:06:14;18.30;99.90
18450;DHT22;9354;50.194;7.690;2023-07-20T07:08:42;18.30;99.90
18450;DHT22;9354;50.194;7.690;2023-07-20T07:11:10;18.40;99.90
18450;DHT22;9354;50.194;7.690;2023-07-20T07:13:38;18.40;99.90
18450;DHT22;9354;50.194;7.690;2023-07-20T07:16:05;18.50;99.90
18450;DHT22;9354;50.194;7.690;2023-07-20T07:18:34;18.60;99.90
18450;DHT22;9354;50.194;7.690;2023-07-20T07:21:01;18.80;99.90
18450;DHT22;9354;50.194;7.690;2023-07-20T07:23:29;18.90;99.90
18450;DHT22;9354;50.194;7.690;2023-07-20T07:25:56;19.00;99.90
18450;DHT22;9354;50.194;7.690;2023-07-20T07:28:23;19.20;99.90
18450;DHT22;9354;50.194;7.690;2023-07-20T07:30:51;19.20;99.90
18450;DHT22;9354;50.194;7.690;2023-07-20T07:33:18;19.30;99.90
18450;DHT22;9354;50.194;7.690;2023-07-20T07:35:47;19.30;99.90
18450;DHT22;9354;50.194;7.690;2023-07-20T07:38:14;19.30;99.90
18450;DHT22;9354;50.194;7.690;2023-07-20T07:40:42;19.30;99.90
18450;DHT22;9354;50.194;7.690;2023-07-20T07:43:09;19.20;99.90
18450;DHT22;9354;50.194;7.690;2023-07-20T07:45:36;19.20;99.90
18450;DHT22;9354;50.194;7.690;2023-07-20T07:48:05;19.10;99.90
18450;DHT22;9354;50.194;7.690;2023-07-20T07:50:33;19.10;99.90
18450;DHT22;9354;50.194;7.690;2023-07-20T07:53:02;19.10;99.90
18450;DHT22;9354;50.194;7.690;2023-07-20T07:55:29;19.10;99.90
18450;DHT22;9354;50.194;7.690;2023-07-20T07:57:56;19.20;99.90
18450;DHT22;9354;50.194;7.690;2023-07-20T08:00:24;19.40;99.90
18450;DHT22;9354;50.194;7.690;2023-07-20T08:02:51;19.50;99.90
18450;DHT22;9354;50.194;7.690;2023-07-20T08:05:19;19.50;99.90
18450;DHT22;9354;50.194;7.690;2023-07-20T08:07:46;19.70;99.90
18450;DHT22;9354;50.194;7.690;2023-07-20T08:10:15;19.80;99.90
18450;DHT22;9354;50.194;7.690;2023-07-20T08:12:42;20.00;99.90
18450;DHT22;9354;50.194;7.690;2023-07-20T08:15:11;20.20;99.90
18450;DHT22;9354;50.194;7.690;2023-07-20T08:17:41;20.30;99.90
18450;DHT22;9354;50.194;7.690;2023-07-20T08:20:09;20.50;99.90
18450;DHT22;9354;50.194;7.690;2023-07-20T08:22:38;20.70;99.90
18450;DHT22;9354;50.194;7.690;2023-07-20T08:25:06;20.80;99.90
18450;DHT22;9354;50.194;7.690;2023-07-20T08:27:36;20.90;99.90
18450;DHT22;9354;50.194;7.690;2023-07-20T08:30:04;21.10;99.90
18450;DHT22;9354;50.194;7.690;2023-07-20T08:32:33;21.40;99.90
18450;DHT22;9354;50.194;7.690;2023-07-20T08:35:00;21.50;99.90
18450;DHT22;9354;50.194;7.690;2023-07-20T08:37:27;21.50;99.90
18450;DHT22;9354;50.194;7.690;2023-07-20T08:39:55;21.40;99.90
18450;DHT22;9354;50.194;7.690;2023-07-20T08:42:23;21.30;99.90
18450;DHT22;9354;50.194;7.690;2023-07-20T08:44:52;21.40;99.80
18450;DHT22;9354;50.194;7.690;2023-07-20T08:47:20;21.50;99.50
18450;DHT22;9354;50.194;7.690;2023-07-20T08:49:49;21.60;99.20
18450;DHT22;9354;50.194;7.690;2023-07-20T08:52:16;21.80;99.00
18450;DHT22;9354;50.194;7.690;2023-07-20T08:54:44;21.90;98.60
18450;DHT22;9354;50.194;7.690;2023-07-20T08:57:13;22.20;98.20
18450;DHT22;9354;50.194;7.690;2023-07-20T08:59:41;22.40;97.90
18450;DHT22;9354;50.194;7.690;2023-07-20T09:02:15;22.60;97.80
18450;DHT22;9354;50.194;7.690;2023-07-20T09:04:44;22.90;97.70
18450;DHT22;9354;50.194;7.690;2023-07-20T09:07:13;23.30;97.30
18450;DHT22;9354;50.194;7.690;2023-07-20T09:09:41;23.50;96.90
18450;DHT22;9354;50.194;7.690;2023-07-20T09:12:13;23.70;96.30
18450;DHT22;9354;50.194;7.690;2023-07-20T09:14:43;23.60;95.90
18450;DHT22;9354;50.194;7.690;2023-07-20T09:17:14;23.50;96.10
18450;DHT22;9354;50.194;7.690;2023-07-20T09:19:48;23.60;96.00
18450;DHT22;9354;50.194;7.690;2023-07-20T09:22:15;23.70;95.80
18450;DHT22;9354;50.194;7.690;2023-07-20T09:24:43;23.80;95.70
18450;DHT22;9354;50.194;7.690;2023-07-20T09:27:11;23.70;95.50
18450;DHT22;9354;50.194;7.690;2023-07-20T09:29:47;23.50;95.70
18450;DHT22;9354;50.194;7.690;2023-07-20T09:32:18;23.30;95.90
18450;DHT22;9354;50.194;7.690;2023-07-20T09:34:46;23.20;96.10
18450;DHT22;9354;50.194;7.690;2023-07-20T09:37:14;23.00;96.00
18450;DHT22;9354;50.194;7.690;2023-07-20T09:39:46;22.80;96.10
18450;DHT22;9354;50.194;7.690;2023-07-20T09:42:15;22.90;96.30
18450;DHT22;9354;50.194;7.690;2023-07-20T09:44:44;23.20;96.20
18450;DHT22;9354;50.194;7.690;2023-07-20T09:47:11;23.50;95.90
18450;DHT22;9354;50.194;7.690;2023-07-20T09:49:40;23.80;95.50
18450;DHT22;9354;50.194;7.690;2023-07-20T09:52:09;24.00;95.20
18450;DHT22;9354;50.194;7.690;2023-07-20T09:54:38;24.10;94.90
18450;DHT22;9354;50.194;7.690;2023-07-20T09:57:07;24.40;94.60
18450;DHT22;9354;50.194;7.690;2023-07-20T09:59:35;24.60;94.30
18450;DHT22;9354;50.194;7.690;2023-07-20T10:02:10;24.70;94.10
18450;DHT22;9354;50.194;7.690;2023-07-20T10:04:42;24.70;93.80
18450;DHT22;9354;50.194;7.690;2023-07-20T10:07:10;24.70;93.90
18450;DHT22;9354;50.194;7.690;2023-07-20T10:09:39;24.80;93.70
18450;DHT22;9354;50.194;7.690;2023-07-20T10:12:08;24.90;93.20
18450;DHT22;9354;50.194;7.690;2023-07-20T10:14:40;25.00;92.90
18450;DHT22;9354;50.194;7.690;2023-07-20T10:17:11;25.10;93.00
18450;DHT22;9354;50.194;7.690;2023-07-20T10:19:44;25.20;92.80
18450;DHT22;9354;50.194;7.690;2023-07-20T10:22:16;25.30;92.90
18450;DHT22;9354;50.194;7.690;2023-07-20T10:24:46;25.40;92.70
18450;DHT22;9354;50.194;7.690;2023-07-20T10:27:14;25.20;92.40
18450;DHT22;9354;50.194;7.690;2023-07-20T10:29:42;24.80;92.40
18450;DHT22;9354;50.194;7.690;2023-07-20T10:32:10;24.50;92.80
18450;DHT22;9354;50.194;7.690;2023-07-20T10:34:39;24.20;92.90
18450;DHT22;9354;50.194;7.690;2023-07-20T10:37:08;24.10;93.40
18450;DHT22;9354;50.194;7.690;2023-07-20T10:39:35;24.20;93.60
18450;DHT22;9354;50.194;7.690;2023-07-20T10:42:03;24.50;93.40
18450;DHT22;9354;50.194;7.690;2023-07-20T10:44:34;24.80;93.20
18450;DHT22;9354;50.194;7.690;2023-07-20T10:47:08;25.10;92.70
18450;DHT22;9354;50.194;7.690;2023-07-20T10:49:59;25.40;92.00
18450;DHT22;9354;50.194;7.690;2023-07-20T10:52:36;25.50;91.40
18450;DHT22;9354;50.194;7.690;2023-07-20T10:55:10;25.60;91.00
18450;DHT22;9354;50.194;7.690;2023-07-20T10:57:38;25.80;90.70
18450;DHT22;9354;50.194;7.690;2023-07-20T11:00:13;26.00;90.30
18450;DHT22;9354;50.194;7.690;2023-07-20T11:02:48;26.10;90.20
18450;DHT22;9354;50.194;7.690;2023-07-20T11:05:39;26.20;89.10
18450;DHT22;9354;50.194;7.690;2023-07-20T11:08:12;26.40;86.00
18450;DHT22;9354;50.194;7.690;2023-07-20T11:10:40;26.50;87.00
18450;DHT22;9354;50.194;7.690;2023-07-20T11:13:21;26.50;87.20
18450;DHT22;9354;50.194;7.690;2023-07-20T11:16:02;26.60;87.30
18450;DHT22;9354;50.194;7.690;2023-07-20T11:18:33;26.80;87.10
18450;DHT22;9354;50.194;7.690;2023-07-20T11:21:02;26.90;87.30
18450;DHT22;9354;50.194;7.690;2023-07-20T11:23:31;26.90;87.40
18450;DHT22;9354;50.194;7.690;2023-07-20T11:25:59;27.10;87.60
18450;DHT22;9354;50.194;7.690;2023-07-20T11:28:30;27.30;87.30
18450;DHT22;9354;50.194;7.690;2023-07-20T11:30:57;27.60;87.00
18450;DHT22;9354;50.194;7.690;2023-07-20T11:33:25;27.90;86.50
18450;DHT22;9354;50.194;7.690;2023-07-20T11:35:53;28.10;85.20
18450;DHT22;9354;50.194;7.690;2023-07-20T11:38:20;28.10;84.50
18450;DHT22;9354;50.194;7.690;2023-07-20T11:40:49;27.80;83.70
18450;DHT22;9354;50.194;7.690;2023-07-20T11:43:17;27.30;83.90
18450;DHT22;9354;50.194;7.690;2023-07-20T11:45:47;26.90;84.40
18450;DHT22;9354;50.194;7.690;2023-07-20T11:48:15;26.50;85.10
18450;DHT22;9354;50.194;7.690;2023-07-20T11:50:42;26.10;85.90
18450;DHT22;9354;50.194;7.690;2023-07-20T11:53:10;25.80;86.50
18450;DHT22;9354;50.194;7.690;2023-07-20T11:55:38;25.40;86.80
18450;DHT22;9354;50.194;7.690;2023-07-20T11:58:09;25.10;87.10
18450;DHT22;9354;50.194;7.690;2023-07-20T12:00:38;24.90;87.60
18450;DHT22;9354;50.194;7.690;2023-07-20T12:03:06;24.70;88.10
18450;DHT22;9354;50.194;7.690;2023-07-20T12:05:34;24.50;88.90
18450;DHT22;9354;50.194;7.690;2023-07-20T12:08:01;24.30;89.40
18450;DHT22;9354;50.194;7.690;2023-07-20T12:10:30;24.20;89.80
18450;DHT22;9354;50.194;7.690;2023-07-20T12:13:02;24.00;89.80
18450;DHT22;9354;50.194;7.690;2023-07-20T12:15:31;23.90;90.00
18450;DHT22;9354;50.194;7.690;2023-07-20T12:18:00;23.70;90.20
18450;DHT22;9354;50.194;7.690;2023-07-20T12:20:29;23.60;90.30
18450;DHT22;9354;50.194;7.690;2023-07-20T12:22:58;23.40;90.30
18450;DHT22;9354;50.194;7.690;2023-07-20T12:25:39;23.40;90.50
18450;DHT22;9354;50.194;7.690;2023-07-20T12:28:08;23.40;90.60
18450;DHT22;9354;50.194;7.690;2023-07-20T12:30:37;23.30;90.50
18450;DHT22;9354;50.194;7.690;2023-07-20T12:33:05;23.20;90.60
18450;DHT22;9354;50.194;7.690;2023-07-20T12:35:32;23.20;90.60
18450;DHT22;9354;50.194;7.690;2023-07-20T12:38:00;23.10;90.70
18450;DHT22;9354;50.194;7.690;2023-07-20T12:40:28;23.10;90.70
18450;DHT22;9354;50.194;7.690;2023-07-20T12:42:56;23.00;90.60
18450;DHT22;9354;50.194;7.690;2023-07-20T12:45:24;23.00;91.10
18450;DHT22;9354;50.194;7.690;2023-07-20T12:47:53;23.00;90.70
18450;DHT22;9354;50.194;7.690;2023-07-20T12:50:20;23.10;90.90
18450;DHT22;9354;50.194;7.690;2023-07-20T12:52:48;23.20;90.90
18450;DHT22;9354;50.194;7.690;2023-07-20T12:55:15;23.30;91.00
18450;DHT22;9354;50.194;7.690;2023-07-20T12:57:45;23.50;91.10
18450;DHT22;9354;50.194;7.690;2023-07-20T13:00:14;23.60;91.00
18450;DHT22;9354;50.194;7.690;2023-07-20T13:02:42;23.70;90.90
18450;DHT22;9354;50.194;7.690;2023-07-20T13:05:11;23.80;90.90
18450;DHT22;9354;50.194;7.690;2023-07-20T13:07:39;23.80;90.90
18450;DHT22;9354;50.194;7.690;2023-07-20T13:10:08;23.90;90.80
18450;DHT22;9354;50.194;7.690;2023-07-20T13:12:36;23.90;90.80
18450;DHT22;9354;50.194;7.690;2023-07-20T13:15:05;23.90;90.70
18450;DHT22;9354;50.194;7.690;2023-07-20T13:17:33;24.00;90.60
18450;DHT22;9354;50.194;7.690;2023-07-20T13:20:01;24.00;90.60
18450;DHT22;9354;50.194;7.690;2023-07-20T13:22:32;24.10;90.60
18450;DHT22;9354;50.194;7.690;2023-07-20T13:25:00;24.10;90.40
18450;DHT22;9354;50.194;7.690;2023-07-20T13:27:28;24.10;90.30
18450;DHT22;9354;50.194;7.690;2023-07-20T13:29:58;24.10;90.20
18450;DHT22;9354;50.194;7.690;2023-07-20T13:32:26;24.20;90.10
18450;DHT22;9354;50.194;7.690;2023-07-20T13:34:54;24.20;90.10
18450;DHT22;9354;50.194;7.690;2023-07-20T13:37:23;24.10;90.00
18450;DHT22;9354;50.194;7.690;2023-07-20T13:39:51;24.10;90.00
18450;DHT22;9354;50.194;7.690;2023-07-20T13:42:19;24.00;89.90
18450;DHT22;9354;50.194;7.690;2023-07-20T13:44:47;24.00;90.00
18450;DHT22;9354;50.194;7.690;2023-07-20T13:47:16;24.00;90.10
18450;DHT22;9354;50.194;7.690;2023-07-20T13:49:43;24.00;90.10
18450;DHT22;9354;50.194;7.690;2023-07-20T13:52:11;24.00;90.10
18450;DHT22;9354;50.194;7.690;2023-07-20T13:54:38;23.90;90.00
18450;DHT22;9354;50.194;7.690;2023-07-20T13:57:07;23.90;90.10
18450;DHT22;9354;50.194;7.690;2023-07-20T13:59:34;23.90;90.20
18450;DHT22;9354;50.194;7.690;2023-07-20T14:02:02;23.90;90.30
18450;DHT22;9354;50.194;7.690;2023-07-20T14:04:29;23.80;90.30
18450;DHT22;9354;50.194;7.690;2023-07-20T14:06:57;23.80;90.00
18450;DHT22;9354;50.194;7.690;2023-07-20T14:09:24;23.70;90.00
18450;DHT22;9354;50.194;7.690;2023-07-20T14:11:51;23.60;90.00
18450;DHT22;9354;50.194;7.690;2023-07-20T14:14:20;23.60;90.00
18450;DHT22;9354;50.194;7.690;2023-07-20T14:16:47;23.50;90.00
18450;DHT22;9354;50.194;7.690;2023-07-20T14:19:15;23.50;89.80
18450;DHT22;9354;50.194;7.690;2023-07-20T14:21:42;23.50;89.40
18450;DHT22;9354;50.194;7.690;2023-07-20T14:24:10;23.50;89.10
18450;DHT22;9354;50.194;7.690;2023-07-20T14:26:38;23.40;88.90
18450;DHT22;9354;50.194;7.690;2023-07-20T14:29:07;23.50;88.90
18450;DHT22;9354;50.194;7.690;2023-07-20T14:31:35;23.60;88.70
18450;DHT22;9354;50.194;7.690;2023-07-20T14:34:03;23.70;88.40
18450;DHT22;9354;50.194;7.690;2023-07-20T14:36:30;23.80;88.40
18450;DHT22;9354;50.194;7.690;2023-07-20T14:38:58;24.10;88.70
18450;DHT22;9354;50.194;7.690;2023-07-20T14:41:25;24.60;88.10
18450;DHT22;9354;50.194;7.690;2023-07-20T14:43:53;24.90;87.20
18450;DHT22;9354;50.194;7.690;2023-07-20T14:46:20;25.10;86.70
18450;DHT22;9354;50.194;7.690;2023-07-20T14:48:49;25.20;86.30
18450;DHT22;9354;50.194;7.690;2023-07-20T14:51:18;25.20;86.00
18450;DHT22;9354;50.194;7.690;2023-07-20T14:53:45;25.20;86.70
18450;DHT22;9354;50.194;7.690;2023-07-20T14:56:12;25.20;85.70
18450;DHT22;9354;50.194;7.690;2023-07-20T14:58:40;25.30;85.70
18450;DHT22;9354;50.194;7.690;2023-07-20T15:01:07;25.40;85.30
18450;DHT22;9354;50.194;7.690;2023-07-20T15:03:34;25.60;85.20
18450;DHT22;9354;50.194;7.690;2023-07-20T15:06:03;25.80;84.70
18450;DHT22;9354;50.194;7.690;2023-07-20T15:08:31;26.10;84.40
18450;DHT22;9354;50.194;7.690;2023-07-20T15:10:58;26.20;83.80
18450;DHT22;9354;50.194;7.690;2023-07-20T15:13:26;26.20;83.10
18450;DHT22;9354;50.194;7.690;2023-07-20T15:15:53;26.20;82.90
18450;DHT22;9354;50.194;7.690;2023-07-20T15:18:21;26.20;83.00
18450;DHT22;9354;50.194;7.690;2023-07-20T15:20:48;26.40;83.20
18450;DHT22;9354;50.194;7.690;2023-07-20T15:23:20;26.50;82.70
18450;DHT22;9354;50.194;7.690;2023-07-20T15:25:48;26.60;82.10
18450;DHT22;9354;50.194;7.690;2023-07-20T15:28:16;26.60;81.90
18450;DHT22;9354;50.194;7.690;2023-07-20T15:30:43;26.60;81.40
18450;DHT22;9354;50.194;7.690;2023-07-20T15:33:11;26.50;81.20
18450;DHT22;9354;50.194;7.690;2023-07-20T15:35:38;26.40;81.20
18450;DHT22;9354;50.194;7.690;2023-07-20T15:38:05;26.40;81.00
18450;DHT22;9354;50.194;7.690;2023-07-20T15:40:34;26.40;81.30
18450;DHT22;9354;50.194;7.690;2023-07-20T15:43:02;26.40;81.40
18450;DHT22;9354;50.194;7.690;2023-07-20T15:45:29;26.50;81.30
18450;DHT22;9354;50.194;7.690;2023-07-20T15:47:57;26.50;81.20
18450;DHT22;9354;50.194;7.690;2023-07-20T15:50:24;26.50;81.40
18450;DHT22;9354;50.194;7.690;2023-07-20T15:52:51;26.50;81.30